createdAt,value
2018-08-11T00:02:02.182Z,15.30
2018-08-11T00:04:29.857Z,15.30
2018-08-11T00:06:57.486Z,15.30
2018-08-11T00:09:25.085Z,15.20
2018-08-11T00:11:52.732Z,15.20
2018-08-11T00:14:20.337Z,15.20
2018-08-11T00:16:47.914Z,15.10
2018-08-11T00:19:15.565Z,15.10
2018-08-11T00:21:43.208Z,15.10
2018-08-11T00:24:10.808Z,15.00
2018-08-11T00:26:38.447Z,15.00
2018-08-11T00:29:06.099Z,15.10
2018-08-11T00:31:34.227Z,15.10
2018-08-11T00:34:01.885Z,15.00
2018-08-11T00:36:29.526Z,14.90
2018-08-11T00:38:58.471Z,14.90
2018-08-11T00:41:28.841Z,14.80
2018-08-11T00:43:56.499Z,14.80
2018-08-11T00:46:24.137Z,14.80
2018-08-11T00:48:51.756Z,14.80
2018-08-11T00:51:19.377Z,14.80
2018-08-11T00:53:47.002Z,14.70
2018-08-11T00:56:14.688Z,14.70
2018-08-11T00:58:42.276Z,14.60
2018-08-11T01:01:12.003Z,14.50
2018-08-11T01:03:39.568Z,14.50
2018-08-11T01:06:07.147Z,14.40
2018-08-11T01:08:34.716Z,14.30
2018-08-11T01:11:02.452Z,14.30
2018-08-11T01:13:30.024Z,14.20
2018-08-11T01:15:57.644Z,14.20
2018-08-11T01:18:25.329Z,14.20
2018-08-11T01:20:52.906Z,14.20
2018-08-11T01:23:20.505Z,14.10
2018-08-11T01:25:48.064Z,14.10
2018-08-11T01:28:15.655Z,14.00
2018-08-11T01:30:43.201Z,14.00
2018-08-11T01:33:10.800Z,13.90
2018-08-11T01:35:38.391Z,13.90
2018-08-11T01:38:06.016Z,13.90
2018-08-11T01:40:33.563Z,13.90
2018-08-11T01:43:01.151Z,13.80
2018-08-11T01:45:29.556Z,13.80
2018-08-11T01:47:57.181Z,13.80
2018-08-11T01:50:28.610Z,13.70
2018-08-11T01:52:56.159Z,13.70
2018-08-11T01:55:23.730Z,13.60
2018-08-11T01:57:51.306Z,13.60
2018-08-11T02:00:20.130Z,13.60
2018-08-11T02:02:47.695Z,13.60
2018-08-11T02:05:15.329Z,13.50
2018-08-11T02:07:43.654Z,13.50
2018-08-11T02:10:13.195Z,13.50
2018-08-11T02:12:41.038Z,13.40
2018-08-11T02:15:10.339Z,13.40
2018-08-11T02:17:38.439Z,13.40
2018-08-11T02:20:08.198Z,13.30
2018-08-11T02:22:35.791Z,13.30
2018-08-11T02:25:04.415Z,13.30
2018-08-11T02:27:31.977Z,13.20
2018-08-11T02:29:59.904Z,13.20
2018-08-11T02:32:27.438Z,13.10
2018-08-11T02:34:55.003Z,13.10
2018-08-11T02:37:22.628Z,13.10
2018-08-11T02:39:50.289Z,13.10
2018-08-11T02:42:17.900Z,13.10
2018-08-11T02:44:45.443Z,13.10
2018-08-11T02:47:13.029Z,13.10
2018-08-11T02:49:40.652Z,13.10
2018-08-11T02:52:08.193Z,13.20
2018-08-11T02:54:35.724Z,13.40
2018-08-11T02:57:03.349Z,13.50
2018-08-11T02:59:30.917Z,13.60
2018-08-11T03:02:02.393Z,13.60
2018-08-11T03:04:30.073Z,13.70
2018-08-11T03:06:57.662Z,13.70
2018-08-11T03:09:25.209Z,13.80
2018-08-11T03:11:53.004Z,13.80
2018-08-11T03:14:20.581Z,13.80
2018-08-11T03:16:48.126Z,13.90
2018-08-11T03:19:15.814Z,13.90
2018-08-11T03:21:43.586Z,13.90
2018-08-11T03:24:11.163Z,13.90
2018-08-11T03:26:38.815Z,14.00
2018-08-11T03:29:06.432Z,14.00
2018-08-11T03:31:34.111Z,14.00
2018-08-11T03:34:01.820Z,14.00
2018-08-11T03:36:29.396Z,14.00
2018-08-11T03:38:56.980Z,14.00
2018-08-11T03:41:24.527Z,14.00
2018-08-11T03:43:52.210Z,14.00
2018-08-11T03:46:19.786Z,14.00
2018-08-11T03:48:47.676Z,14.00
2018-08-11T03:51:15.228Z,14.00
2018-08-11T03:53:42.852Z,14.00
2018-08-11T03:56:10.434Z,14.00
2018-08-11T03:58:38.010Z,14.00
2018-08-11T04:01:05.942Z,14.00
2018-08-11T04:03:33.568Z,14.00
2018-08-11T04:06:01.151Z,14.00
2018-08-11T04:08:28.707Z,14.00
2018-08-11T04:10:56.273Z,13.90
2018-08-11T04:13:23.811Z,13.90
2018-08-11T04:15:51.346Z,13.90
2018-08-11T04:18:18.899Z,13.90
2018-08-11T04:20:46.435Z,13.90
2018-08-11T04:23:13.960Z,13.80
2018-08-11T04:25:41.497Z,13.80
2018-08-11T04:28:09.036Z,13.80
2018-08-11T04:30:36.573Z,13.80
2018-08-11T04:33:05.172Z,13.80
2018-08-11T04:35:32.857Z,13.90
2018-08-11T04:38:00.422Z,13.90
2018-08-11T04:40:28.063Z,13.80
2018-08-11T04:42:55.633Z,13.80
2018-08-11T04:45:23.331Z,13.80
2018-08-11T04:47:51.012Z,13.80
2018-08-11T04:50:18.618Z,13.90
2018-08-11T04:52:46.223Z,13.90
2018-08-11T04:55:13.794Z,13.90
2018-08-11T04:57:41.395Z,13.90
2018-08-11T05:00:09.015Z,14.00
2018-08-11T05:02:36.596Z,14.00
2018-08-11T05:05:04.957Z,14.00
2018-08-11T05:07:32.560Z,14.00
2018-08-11T05:10:00.219Z,14.10
2018-08-11T05:12:27.807Z,14.10
2018-08-11T05:14:55.360Z,14.20
2018-08-11T05:17:22.934Z,14.20
2018-08-11T05:19:50.733Z,14.20
2018-08-11T05:22:18.293Z,14.30
2018-08-11T05:24:45.903Z,14.30
2018-08-11T05:27:13.691Z,14.30
2018-08-11T05:29:41.351Z,14.40
2018-08-11T05:32:08.982Z,14.50
2018-08-11T05:34:36.547Z,14.50
2018-08-11T05:37:04.371Z,14.50
2018-08-11T05:39:31.958Z,14.50
2018-08-11T05:41:59.561Z,14.50
2018-08-11T05:44:27.361Z,14.50
2018-08-11T05:46:54.948Z,14.60
2018-08-11T05:49:22.496Z,14.70
2018-08-11T05:51:50.071Z,14.70
2018-08-11T05:54:17.606Z,14.70
2018-08-11T05:56:45.296Z,14.80
2018-08-11T05:59:13.064Z,14.90
2018-08-11T06:01:40.780Z,15.00
2018-08-11T06:04:08.388Z,15.00
2018-08-11T06:06:36.111Z,15.10
2018-08-11T06:09:06.676Z,15.10
2018-08-11T06:11:35.531Z,15.20
2018-08-11T06:14:03.131Z,15.30
2018-08-11T06:16:30.711Z,15.40
2018-08-11T06:18:58.259Z,15.60
2018-08-11T06:21:25.888Z,15.80
2018-08-11T06:23:53.443Z,16.00
2018-08-11T06:26:21.087Z,16.20
2018-08-11T06:28:48.684Z,16.40
2018-08-11T06:31:16.318Z,16.60
2018-08-11T06:33:43.864Z,16.80
2018-08-11T06:36:11.441Z,16.80
2018-08-11T06:38:39.059Z,16.90
2018-08-11T06:41:06.668Z,17.10
2018-08-11T06:43:34.236Z,17.30
2018-08-11T06:46:02.864Z,17.60
2018-08-11T06:48:30.426Z,17.90
2018-08-11T06:50:57.999Z,18.10
2018-08-11T06:53:25.621Z,18.20
2018-08-11T06:55:53.193Z,18.20
2018-08-11T06:58:21.205Z,18.20
2018-08-11T07:00:48.751Z,18.00
2018-08-11T07:03:16.603Z,17.80
2018-08-11T07:05:44.326Z,17.70
2018-08-11T07:08:12.211Z,17.70
2018-08-11T07:10:42.700Z,17.70
2018-08-11T07:13:11.268Z,17.80
2018-08-11T07:15:38.979Z,18.10
2018-08-11T07:18:07.076Z,18.70
2018-08-11T07:20:34.654Z,19.30
2018-08-11T07:23:02.195Z,19.80
2018-08-11T07:25:30.105Z,20.10
2018-08-11T07:27:57.800Z,20.20
2018-08-11T07:30:25.455Z,20.10
2018-08-11T07:32:53.136Z,20.00
2018-08-11T07:35:20.732Z,19.90
2018-08-11T07:37:48.316Z,19.70
2018-08-11T07:40:15.934Z,19.60
2018-08-11T07:42:43.864Z,19.50
2018-08-11T07:45:11.675Z,19.50
2018-08-11T07:47:39.360Z,19.50
2018-08-11T07:50:07.186Z,19.50
2018-08-11T07:52:35.023Z,19.60
2018-08-11T07:55:02.721Z,19.70
2018-08-11T07:57:30.653Z,19.80
2018-08-11T07:59:58.431Z,19.80
2018-08-11T08:02:26.300Z,20.00
2018-08-11T08:04:53.895Z,20.60
2018-08-11T08:07:21.438Z,21.40
2018-08-11T08:09:49.378Z,22.20
2018-08-11T08:12:17.019Z,22.60
2018-08-11T08:14:46.769Z,23.10
2018-08-11T08:17:14.330Z,23.30
2018-08-11T08:19:41.907Z,23.40
2018-08-11T08:22:09.804Z,23.40
2018-08-11T08:24:37.391Z,23.60
2018-08-11T08:27:05.422Z,23.90
2018-08-11T08:29:33.317Z,24.50
2018-08-11T08:32:00.897Z,24.70
2018-08-11T08:34:28.584Z,24.90
2018-08-11T08:36:56.804Z,25.40
2018-08-11T08:39:24.387Z,26.10
2018-08-11T08:41:52.179Z,26.60
2018-08-11T08:44:19.773Z,27.00
2018-08-11T08:46:47.472Z,27.30
2018-08-11T08:49:15.422Z,27.40
2018-08-11T08:51:42.969Z,27.30
2018-08-11T08:54:10.559Z,27.30
2018-08-11T08:56:38.151Z,27.60
2018-08-11T08:59:05.986Z,27.80
2018-08-11T09:01:34.683Z,28.30
2018-08-11T09:04:02.330Z,28.70
2018-08-11T09:06:29.861Z,29.40
2018-08-11T09:08:57.414Z,30.00
2018-08-11T09:11:24.952Z,30.10
2018-08-11T09:13:52.483Z,29.80
2018-08-11T09:16:20.128Z,29.70
2018-08-11T09:18:47.687Z,29.00
2018-08-11T09:21:15.206Z,28.60
2018-08-11T09:23:42.761Z,28.40
2018-08-11T09:26:10.482Z,28.50
2018-08-11T09:28:38.051Z,29.00
2018-08-11T09:31:06.146Z,29.30
2018-08-11T09:33:33.927Z,29.30
2018-08-11T09:36:01.489Z,29.50
2018-08-11T09:38:29.123Z,29.80
2018-08-11T09:40:57.635Z,30.00
2018-08-11T09:43:25.180Z,30.50
2018-08-11T09:45:52.730Z,31.00
2018-08-11T09:48:20.451Z,31.20
2018-08-11T09:50:48.048Z,30.90
2018-08-11T09:53:16.607Z,30.20
2018-08-11T09:55:44.147Z,30.30
2018-08-11T09:58:11.756Z,29.70
2018-08-11T10:00:44.997Z,29.90
2018-08-11T10:03:12.576Z,29.90
2018-08-11T10:05:40.165Z,29.80
2018-08-11T10:08:08.328Z,28.90
2018-08-11T10:10:35.992Z,28.10
2018-08-11T10:13:03.696Z,27.80
2018-08-11T10:15:31.270Z,27.50
2018-08-11T10:17:58.851Z,26.70
2018-08-11T10:20:28.031Z,25.90
2018-08-11T10:22:55.641Z,25.50
2018-08-11T10:25:23.439Z,25.20
2018-08-11T10:27:50.999Z,25.00
2018-08-11T10:30:20.591Z,24.70
2018-08-11T10:32:48.182Z,24.70
2018-08-11T10:35:15.865Z,24.90
2018-08-11T10:37:48.332Z,25.00
2018-08-11T10:40:15.942Z,25.00
2018-08-11T10:42:48.922Z,25.10
2018-08-11T10:45:16.618Z,25.90
2018-08-11T10:47:44.192Z,26.90
2018-08-11T10:50:11.869Z,27.60
2018-08-11T10:52:39.440Z,28.40
2018-08-11T10:55:08.056Z,29.20
2018-08-11T10:57:35.640Z,29.30
2018-08-11T11:00:03.655Z,29.00
2018-08-11T11:02:31.236Z,28.70
2018-08-11T11:04:58.903Z,27.80
2018-08-11T11:07:26.482Z,27.10
2018-08-11T11:09:54.051Z,27.10
2018-08-11T11:12:21.615Z,27.70
2018-08-11T11:14:49.186Z,28.60
2018-08-11T11:17:16.743Z,28.50
2018-08-11T11:19:44.284Z,28.20
2018-08-11T11:22:12.115Z,28.20
2018-08-11T11:24:39.678Z,27.90
2018-08-11T11:27:07.245Z,27.30
2018-08-11T11:29:34.745Z,27.00
2018-08-11T11:32:02.448Z,27.50
2018-08-11T11:34:30.731Z,27.60
2018-08-11T11:36:58.296Z,27.70
2018-08-11T11:39:25.931Z,28.20
2018-08-11T11:41:53.473Z,28.80
2018-08-11T11:44:21.021Z,28.60
2018-08-11T11:46:48.546Z,29.50
2018-08-11T11:49:16.099Z,30.60
2018-08-11T11:51:43.639Z,31.30
2018-08-11T11:54:11.178Z,31.80
2018-08-11T11:56:38.781Z,32.20
2018-08-11T11:59:06.656Z,32.60
2018-08-11T12:01:34.204Z,32.70
2018-08-11T12:04:01.955Z,32.70
2018-08-11T12:06:29.506Z,32.20
2018-08-11T12:08:57.110Z,31.90
2018-08-11T12:11:24.735Z,31.10
2018-08-11T12:13:52.309Z,30.70
2018-08-11T12:16:19.848Z,31.20
2018-08-11T12:18:47.428Z,31.90
2018-08-11T12:21:15.167Z,31.60
2018-08-11T12:23:42.703Z,31.10
2018-08-11T12:26:10.247Z,31.40
2018-08-11T12:28:37.977Z,32.00
2018-08-11T12:31:06.107Z,32.60
2018-08-11T12:33:33.630Z,32.90
2018-08-11T12:36:01.179Z,32.80
2018-08-11T12:38:28.750Z,32.90
2018-08-11T12:40:56.263Z,32.30
2018-08-11T12:43:23.789Z,31.60
2018-08-11T12:45:51.404Z,30.50
2018-08-11T12:48:18.980Z,29.90
2018-08-11T12:50:46.874Z,29.30
2018-08-11T12:53:14.441Z,29.10
2018-08-11T12:55:41.983Z,29.40
2018-08-11T12:58:09.503Z,30.00
2018-08-11T13:00:37.048Z,30.50
2018-08-11T13:03:04.847Z,31.10
2018-08-11T13:05:32.400Z,31.70
2018-08-11T13:07:59.983Z,31.40
2018-08-11T13:10:27.706Z,31.00
2018-08-11T13:12:55.517Z,30.10
2018-08-11T13:15:23.093Z,29.50
2018-08-11T13:17:50.623Z,28.70
2018-08-11T13:20:18.184Z,28.50
2018-08-11T13:22:46.123Z,28.90
2018-08-11T13:25:13.664Z,28.70
2018-08-11T13:27:41.204Z,28.50
2018-08-11T13:30:08.759Z,28.00
2018-08-11T13:32:36.528Z,28.50
2018-08-11T13:35:04.494Z,29.20
2018-08-11T13:37:32.364Z,29.90
2018-08-11T13:39:59.979Z,29.90
2018-08-11T13:42:27.796Z,29.60
2018-08-11T13:44:55.370Z,29.40
2018-08-11T13:47:26.763Z,29.70
2018-08-11T13:49:54.551Z,29.50
2018-08-11T13:52:22.179Z,29.80
2018-08-11T13:54:49.776Z,29.70
2018-08-11T13:57:17.444Z,29.80
2018-08-11T13:59:44.971Z,29.40
2018-08-11T14:02:12.499Z,28.90
2018-08-11T14:04:40.071Z,28.80
2018-08-11T14:07:07.777Z,29.40
2018-08-11T14:09:35.564Z,29.50
2018-08-11T14:12:03.336Z,30.00
2018-08-11T14:14:30.950Z,30.30
2018-08-11T14:16:58.488Z,30.30
2018-08-11T14:19:26.096Z,29.60
2018-08-11T14:21:53.712Z,29.10
2018-08-11T14:24:21.288Z,28.70
2018-08-11T14:26:48.835Z,28.40
2018-08-11T14:29:16.399Z,28.00
2018-08-11T14:31:43.947Z,27.90
2018-08-11T14:34:12.522Z,28.40
2018-08-11T14:36:40.244Z,28.90
2018-08-11T14:39:08.583Z,29.00
2018-08-11T14:41:36.424Z,29.10
2018-08-11T14:44:04.143Z,29.30
2018-08-11T14:46:31.729Z,29.30
2018-08-11T14:48:59.315Z,29.20
2018-08-11T14:51:27.014Z,29.50
2018-08-11T14:53:54.621Z,29.70
2018-08-11T14:56:22.225Z,29.90
2018-08-11T14:58:49.788Z,30.20
2018-08-11T15:01:17.344Z,30.40
2018-08-11T15:03:44.903Z,30.40
2018-08-11T15:06:12.639Z,30.20
2018-08-11T15:08:40.192Z,29.80
2018-08-11T15:11:07.828Z,29.60
2018-08-11T15:13:35.408Z,29.10
2018-08-11T15:16:06.607Z,28.50
2018-08-11T15:18:34.188Z,28.00
2018-08-11T15:21:01.774Z,27.90
2018-08-11T15:23:29.344Z,27.90
2018-08-11T15:25:56.895Z,28.10
2018-08-11T15:28:24.466Z,28.40
2018-08-11T15:30:52.017Z,28.20
2018-08-11T15:33:19.600Z,27.80
2018-08-11T15:35:47.664Z,27.30
2018-08-11T15:38:15.224Z,26.80
2018-08-11T15:40:42.764Z,26.30
2018-08-11T15:43:10.331Z,26.00
2018-08-11T15:45:37.847Z,25.80
2018-08-11T15:48:05.463Z,26.00
2018-08-11T15:50:33.056Z,26.30
2018-08-11T15:53:00.599Z,26.70
2018-08-11T15:55:28.195Z,26.90
2018-08-11T15:57:55.732Z,26.90
2018-08-11T16:00:23.269Z,26.90
2018-08-11T16:02:50.818Z,26.60
2018-08-11T16:05:18.394Z,26.40
2018-08-11T16:07:46.072Z,26.20
2018-08-11T16:10:13.659Z,26.00
2018-08-11T16:12:41.420Z,25.70
2018-08-11T16:15:08.982Z,25.50
2018-08-11T16:17:36.520Z,25.50
2018-08-11T16:20:04.310Z,25.40
2018-08-11T16:22:32.297Z,25.40
2018-08-11T16:24:59.841Z,25.50
2018-08-11T16:27:27.491Z,25.60
2018-08-11T16:29:55.025Z,25.60
2018-08-11T16:32:22.936Z,25.60
2018-08-11T16:34:50.659Z,25.40
2018-08-11T16:37:18.273Z,25.10
2018-08-11T16:39:45.860Z,24.80
2018-08-11T16:42:13.432Z,24.70
2018-08-11T16:44:55.086Z,24.60
2018-08-11T16:47:22.635Z,24.50
2018-08-11T16:49:50.255Z,24.40
2018-08-11T16:52:17.918Z,24.30
2018-08-11T16:54:49.551Z,24.20
2018-08-11T16:57:17.517Z,24.20
2018-08-11T16:59:45.408Z,24.20
2018-08-11T17:02:12.975Z,24.10
2018-08-11T17:04:49.162Z,24.10
2018-08-11T17:07:16.742Z,24.00
2018-08-11T17:09:44.331Z,24.00
2018-08-11T17:12:11.883Z,23.90
2018-08-11T17:14:39.847Z,23.70
2018-08-11T17:17:07.478Z,23.50
2018-08-11T17:19:35.003Z,23.40
2018-08-11T17:22:02.560Z,23.40
2018-08-11T17:24:30.140Z,23.30
2018-08-11T17:26:57.729Z,23.10
2018-08-11T17:29:25.303Z,23.00
2018-08-11T17:31:52.825Z,22.90
2018-08-11T17:34:20.387Z,22.80
2018-08-11T17:36:48.019Z,22.80
2018-08-11T17:39:15.868Z,22.60
2018-08-11T17:41:43.408Z,22.50
2018-08-11T17:44:10.963Z,22.40
2018-08-11T17:46:38.578Z,22.40
2018-08-11T17:49:06.266Z,22.30
2018-08-11T17:51:34.044Z,22.20
2018-08-11T17:54:02.016Z,22.10
2018-08-11T17:56:29.607Z,22.00
2018-08-11T17:58:57.227Z,22.00
2018-08-11T18:01:30.657Z,21.90
2018-08-11T18:04:02.670Z,21.80
2018-08-11T18:06:30.331Z,21.70
2018-08-11T18:08:58.047Z,21.60
2018-08-11T18:11:25.728Z,21.50
2018-08-11T18:13:53.339Z,21.40
2018-08-11T18:16:20.967Z,21.40
2018-08-11T18:18:49.159Z,21.30
2018-08-11T18:21:16.723Z,21.20
2018-08-11T18:23:44.620Z,21.10
2018-08-11T18:26:12.242Z,21.00
2018-08-11T18:28:39.852Z,20.90
2018-08-11T18:31:07.713Z,20.80
2018-08-11T18:33:35.493Z,20.70
2018-08-11T18:36:03.258Z,20.60
2018-08-11T18:38:30.901Z,20.50
2018-08-11T18:40:58.658Z,20.40
2018-08-11T18:43:26.440Z,20.30
2018-08-11T18:45:53.986Z,20.20
2018-08-11T18:48:21.572Z,20.10
2018-08-11T18:50:49.687Z,20.00
2018-08-11T18:53:17.340Z,19.90
2018-08-11T18:55:45.423Z,19.70
2018-08-11T18:58:13.094Z,19.60
2018-08-11T19:00:40.798Z,19.60
2018-08-11T19:03:08.473Z,19.50
2018-08-11T19:05:36.107Z,19.30
2018-08-11T19:08:03.835Z,19.20
2018-08-11T19:10:31.500Z,19.10
2018-08-11T19:12:59.166Z,19.00
2018-08-11T19:15:26.780Z,18.90
2018-08-11T19:17:54.379Z,18.80
2018-08-11T19:20:22.187Z,18.70
2018-08-11T19:22:50.224Z,18.60
2018-08-11T19:25:17.843Z,18.50
2018-08-11T19:27:45.563Z,18.40
2018-08-11T19:30:13.122Z,18.40
2018-08-11T19:32:40.751Z,18.30
2018-08-11T19:35:08.405Z,18.10
2018-08-11T19:37:36.578Z,18.00
2018-08-11T19:40:05.111Z,17.90
2018-08-11T19:42:32.710Z,17.80
2018-08-11T19:45:00.317Z,17.70
2018-08-11T19:47:27.891Z,17.60
2018-08-11T19:49:55.450Z,17.50
2018-08-11T19:52:23.099Z,17.40
2018-08-11T19:54:51.149Z,17.20
2018-08-11T19:57:18.744Z,17.20
2018-08-11T19:59:46.354Z,17.10
2018-08-11T20:02:14.193Z,16.90
2018-08-11T20:04:41.847Z,16.90
2018-08-11T20:07:09.583Z,16.70
2018-08-11T20:09:37.212Z,16.60
2018-08-11T20:12:04.890Z,16.50
2018-08-11T20:14:32.439Z,16.50
2018-08-11T20:17:00.027Z,16.40
2018-08-11T20:19:27.765Z,16.40
2018-08-11T20:21:55.365Z,16.30
2018-08-11T20:24:23.019Z,16.20
2018-08-11T20:26:51.267Z,16.20
2018-08-11T20:29:18.886Z,16.10
2018-08-11T20:31:46.524Z,16.10
2018-08-11T20:34:14.127Z,15.90
2018-08-11T20:36:41.720Z,15.90
2018-08-11T20:39:11.462Z,15.80
2018-08-11T20:41:39.100Z,15.80
2018-08-11T20:44:06.729Z,15.70
2018-08-11T20:46:34.502Z,15.60
2018-08-11T20:49:02.401Z,15.50
2018-08-11T20:51:29.975Z,15.40
2018-08-11T20:53:57.592Z,15.40
2018-08-11T20:56:25.506Z,15.40
2018-08-11T20:58:53.303Z,15.30
2018-08-11T21:01:21.164Z,15.30
2018-08-11T21:03:48.743Z,15.20
2018-08-11T21:06:16.357Z,15.20
2018-08-11T21:08:43.967Z,15.10
2018-08-11T21:11:11.783Z,15.10
2018-08-11T21:13:39.448Z,15.00
2018-08-11T21:16:07.249Z,14.90
2018-08-11T21:18:34.840Z,14.90
2018-08-11T21:21:02.444Z,14.90
2018-08-11T21:23:30.184Z,14.90
2018-08-11T21:25:57.714Z,14.90
2018-08-11T21:28:25.319Z,14.80
2018-08-11T21:30:52.944Z,14.80
2018-08-11T21:33:20.547Z,14.70
2018-08-11T21:35:48.183Z,14.70
2018-08-11T21:38:15.788Z,14.70
2018-08-11T21:40:43.408Z,14.60
2018-08-11T21:43:10.987Z,14.60
2018-08-11T21:45:38.569Z,14.60
2018-08-11T21:48:06.535Z,14.50
2018-08-11T21:50:34.187Z,14.40
2018-08-11T21:53:01.860Z,14.30
2018-08-11T21:55:29.487Z,14.30
2018-08-11T21:57:57.196Z,14.40
2018-08-11T22:00:29.754Z,14.30
2018-08-11T22:02:58.063Z,14.30
2018-08-11T22:05:26.325Z,14.20
2018-08-11T22:07:54.576Z,14.10
2018-08-11T22:10:22.229Z,14.00
2018-08-11T22:12:49.850Z,13.80
2018-08-11T22:15:19.229Z,13.80
2018-08-11T22:17:47.303Z,13.70
2018-08-11T22:20:14.964Z,13.60
2018-08-11T22:22:43.210Z,13.60
2018-08-11T22:25:11.603Z,13.50
2018-08-11T22:27:39.204Z,13.40
2018-08-11T22:30:07.392Z,13.30
2018-08-11T22:32:35.407Z,13.20
2018-08-11T22:35:03.783Z,13.10
2018-08-11T22:37:31.945Z,13.10
2018-08-11T22:39:59.688Z,13.00
2018-08-11T22:42:27.233Z,13.00
2018-08-11T22:44:54.823Z,12.90
2018-08-11T22:47:22.474Z,12.90
2018-08-11T22:49:49.988Z,12.80
2018-08-11T22:52:17.579Z,12.70
2018-08-11T22:54:45.231Z,12.70
2018-08-11T22:57:12.876Z,12.60
2018-08-11T22:59:40.443Z,12.60
2018-08-11T23:02:08.022Z,12.60
2018-08-11T23:04:35.585Z,12.50
2018-08-11T23:07:03.228Z,12.50
2018-08-11T23:09:30.856Z,12.40
2018-08-11T23:11:58.664Z,12.40
2018-08-11T23:14:26.379Z,12.40
2018-08-11T23:16:54.275Z,12.30
2018-08-11T23:19:21.884Z,12.30
2018-08-11T23:21:49.456Z,12.20
2018-08-11T23:24:17.038Z,12.20
2018-08-11T23:26:44.610Z,12.10
2018-08-11T23:29:12.203Z,12.10
2018-08-11T23:31:39.780Z,12.10
2018-08-11T23:34:07.464Z,12.10
2018-08-11T23:36:35.056Z,12.00
2018-08-11T23:39:03.972Z,12.00
2018-08-11T23:41:31.522Z,12.00
2018-08-11T23:43:59.051Z,11.90
2018-08-11T23:46:26.692Z,11.90
2018-08-11T23:48:54.658Z,11.80
2018-08-11T23:51:22.215Z,11.80
2018-08-11T23:53:50.021Z,11.70
2018-08-11T23:56:17.586Z,11.70
2018-08-11T23:58:45.192Z,11.70
